sensor_id;sensor_type;location;lat;lon;timestamp;temperature;humidity
19085;DHT22;9675;51.538;6.728;2023-04-01T00:01:48;11.50;99.90
19085;DHT22;9675;51.538;6.728;2023-04-01T00:04:16;11.50;99.90
19085;DHT22;9675;51.538;6.728;2023-04-01T00:06:43;11.50;99.90
19085;DHT22;9675;51.538;6.728;2023-04-01T00:09:10;11.50;99.90
19085;DHT22;9675;51.538;6.728;2023-04-01T00:11:39;11.50;99.90
19085;DHT22;9675;51.538;6.728;2023-04-01T00:14:07;11.40;99.90
19085;DHT22;9675;51.538;6.728;2023-04-01T00:16:34;11.40;99.90
19085;DHT22;9675;51.538;6.728;2023-04-01T00:19:01;11.40;99.90
19085;DHT22;9675;51.538;6.728;2023-04-01T00:21:29;11.50;99.90
19085;DHT22;9675;51.538;6.728;2023-04-01T00:23:56;11.40;99.90
19085;DHT22;9675;51.538;6.728;2023-04-01T00:26:24;11.40;99.90
19085;DHT22;9675;51.538;6.728;2023-04-01T00:28:53;11.40;99.90
19085;DHT22;9675;51.538;6.728;2023-04-01T00:31:20;11.40;99.90
19085;DHT22;9675;51.538;6.728;2023-04-01T00:33:47;11.40;99.90
19085;DHT22;9675;51.538;6.728;2023-04-01T00:36:16;11.40;99.90
19085;DHT22;9675;51.538;6.728;2023-04-01T00:38:45;11.40;99.90
19085;DHT22;9675;51.538;6.728;2023-04-01T00:41:13;11.40;99.90
19085;DHT22;9675;51.538;6.728;2023-04-01T00:43:43;11.40;99.90
19085;DHT22;9675;51.538;6.728;2023-04-01T00:46:14;11.40;99.90
19085;DHT22;9675;51.538;6.728;2023-04-01T00:48:43;11.40;99.90
19085;DHT22;9675;51.538;6.728;2023-04-01T00:51:17;11.40;99.90
19085;DHT22;9675;51.538;6.728;2023-04-01T00:53:48;11.40;99.90
19085;DHT22;9675;51.538;6.728;2023-04-01T00:56:19;11.40;99.90
19085;DHT22;9675;51.538;6.728;2023-04-01T00:58:52;11.30;99.90
19085;DHT22;9675;51.538;6.728;2023-04-01T01:01:25;11.30;99.90
19085;DHT22;9675;51.538;6.728;2023-04-01T01:03:52;11.30;99.90
19085;DHT22;9675;51.538;6.728;2023-04-01T01:06:37;11.30;99.90
19085;DHT22;9675;51.538;6.728;2023-04-01T01:09:25;11.30;99.90
19085;DHT22;9675;51.538;6.728;2023-04-01T01:12:06;11.30;99.90
19085;DHT22;9675;51.538;6.728;2023-04-01T01:14:46;11.30;99.90
19085;DHT22;9675;51.538;6.728;2023-04-01T01:17:29;11.30;99.90
19085;DHT22;9675;51.538;6.728;2023-04-01T01:27:03;11.20;99.90
19085;DHT22;9675;51.538;6.728;2023-04-01T01:33:06;11.20;99.90
19085;DHT22;9675;51.538;6.728;2023-04-01T01:35:44;11.30;99.90
19085;DHT22;9675;51.538;6.728;2023-04-01T01:38:16;11.20;99.90
19085;DHT22;9675;51.538;6.728;2023-04-01T01:40:48;11.20;99.90
19085;DHT22;9675;51.538;6.728;2023-04-01T01:43:22;11.20;99.90
19085;DHT22;9675;51.538;6.728;2023-04-01T01:45:55;11.20;99.90
19085;DHT22;9675;51.538;6.728;2023-04-01T01:48:26;11.20;99.90
19085;DHT22;9675;51.538;6.728;2023-04-01T01:50:57;11.20;99.90
19085;DHT22;9675;51.538;6.728;2023-04-01T01:53:25;11.20;99.90
19085;DHT22;9675;51.538;6.728;2023-04-01T01:55:52;11.20;99.90
19085;DHT22;9675;51.538;6.728;2023-04-01T01:58:23;11.10;99.90
19085;DHT22;9675;51.538;6.728;2023-04-01T02:00:56;11.20;99.90
19085;DHT22;9675;51.538;6.728;2023-04-01T02:03:28;11.20;99.90
19085;DHT22;9675;51.538;6.728;2023-04-01T02:06:00;11.20;99.90
19085;DHT22;9675;51.538;6.728;2023-04-01T02:08:35;11.20;99.90
19085;DHT22;9675;51.538;6.728;2023-04-01T02:11:07;11.10;99.90
19085;DHT22;9675;51.538;6.728;2023-04-01T02:13:39;11.10;99.90
19085;DHT22;9675;51.538;6.728;2023-04-01T02:16:14;11.10;99.90
19085;DHT22;9675;51.538;6.728;2023-04-01T02:18:48;11.10;99.90
19085;DHT22;9675;51.538;6.728;2023-04-01T02:21:22;11.10;99.90
19085;DHT22;9675;51.538;6.728;2023-04-01T02:23:53;11.10;99.90
19085;DHT22;9675;51.538;6.728;2023-04-01T02:26:24;11.10;99.90
19085;DHT22;9675;51.538;6.728;2023-04-01T02:28:53;11.10;99.90
19085;DHT22;9675;51.538;6.728;2023-04-01T02:31:22;11.10;99.90
19085;DHT22;9675;51.538;6.728;2023-04-01T02:33:50;11.10;99.90
19085;DHT22;9675;51.538;6.728;2023-04-01T02:36:20;11.10;99.90
19085;DHT22;9675;51.538;6.728;2023-04-01T02:38:48;11.10;99.90
19085;DHT22;9675;51.538;6.728;2023-04-01T02:41:17;11.10;99.90
19085;DHT22;9675;51.538;6.728;2023-04-01T02:43:44;11.20;99.90
19085;DHT22;9675;51.538;6.728;2023-04-01T02:46:12;11.10;99.90
19085;DHT22;9675;51.538;6.728;2023-04-01T02:48:39;11.10;99.90
19085;DHT22;9675;51.538;6.728;2023-04-01T02:51:06;11.00;99.90
19085;DHT22;9675;51.538;6.728;2023-04-01T02:53:35;11.10;99.90
19085;DHT22;9675;51.538;6.728;2023-04-01T02:56:03;11.00;99.90
19085;DHT22;9675;51.538;6.728;2023-04-01T02:58:31;11.00;99.90
19085;DHT22;9675;51.538;6.728;2023-04-01T03:00:58;11.00;99.90
19085;DHT22;9675;51.538;6.728;2023-04-01T03:03:25;11.00;99.90
19085;DHT22;9675;51.538;6.728;2023-04-01T03:05:52;11.00;99.90
19085;DHT22;9675;51.538;6.728;2023-04-01T03:08:20;11.00;99.90
19085;DHT22;9675;51.538;6.728;2023-04-01T03:10:49;11.00;99.90
19085;DHT22;9675;51.538;6.728;2023-04-01T03:13:16;11.00;99.90
19085;DHT22;9675;51.538;6.728;2023-04-01T03:15:43;11.00;99.90
19085;DHT22;9675;51.538;6.728;2023-04-01T03:18:10;11.00;99.90
19085;DHT22;9675;51.538;6.728;2023-04-01T03:20:37;11.00;99.90
19085;DHT22;9675;51.538;6.728;2023-04-01T03:23:04;11.00;99.90
19085;DHT22;9675;51.538;6.728;2023-04-01T03:25:31;11.00;99.90
19085;DHT22;9675;51.538;6.728;2023-04-01T03:27:59;11.00;99.90
19085;DHT22;9675;51.538;6.728;2023-04-01T03:30:27;11.00;99.90
19085;DHT22;9675;51.538;6.728;2023-04-01T03:32:55;11.00;99.90
19085;DHT22;9675;51.538;6.728;2023-04-01T03:35:22;11.00;99.90
19085;DHT22;9675;51.538;6.728;2023-04-01T03:37:50;11.00;99.90
19085;DHT22;9675;51.538;6.728;2023-04-01T03:40:18;11.00;99.90
19085;DHT22;9675;51.538;6.728;2023-04-01T03:42:45;11.00;99.90
19085;DHT22;9675;51.538;6.728;2023-04-01T03:45:13;11.00;99.90
19085;DHT22;9675;51.538;6.728;2023-04-01T03:47:41;11.00;99.90
19085;DHT22;9675;51.538;6.728;2023-04-01T03:50:09;11.00;99.90
19085;DHT22;9675;51.538;6.728;2023-04-01T03:52:36;11.00;99.90
19085;DHT22;9675;51.538;6.728;2023-04-01T03:55:04;11.00;99.90
19085;DHT22;9675;51.538;6.728;2023-04-01T03:57:31;10.90;99.90
19085;DHT22;9675;51.538;6.728;2023-04-01T03:59:58;11.00;99.90
19085;DHT22;9675;51.538;6.728;2023-04-01T04:02:28;10.90;99.90
19085;DHT22;9675;51.538;6.728;2023-04-01T04:04:55;10.90;99.90
19085;DHT22;9675;51.538;6.728;2023-04-01T04:07:23;10.90;99.90
19085;DHT22;9675;51.538;6.728;2023-04-01T04:09:49;10.90;99.90
19085;DHT22;9675;51.538;6.728;2023-04-01T04:12:16;11.00;99.90
19085;DHT22;9675;51.538;6.728;2023-04-01T04:14:43;11.00;99.90
19085;DHT22;9675;51.538;6.728;2023-04-01T04:17:11;11.00;99.90
19085;DHT22;9675;51.538;6.728;2023-04-01T04:19:42;10.90;99.90
19085;DHT22;9675;51.538;6.728;2023-04-01T04:22:10;10.90;99.90
19085;DHT22;9675;51.538;6.728;2023-04-01T04:24:37;10.90;99.90
19085;DHT22;9675;51.538;6.728;2023-04-01T04:27:04;10.90;99.90
19085;DHT22;9675;51.538;6.728;2023-04-01T04:29:31;10.90;99.90
19085;DHT22;9675;51.538;6.728;2023-04-01T04:31:58;10.90;99.90
19085;DHT22;9675;51.538;6.728;2023-04-01T04:34:25;10.90;99.90
19085;DHT22;9675;51.538;6.728;2023-04-01T04:36:54;10.90;99.90
19085;DHT22;9675;51.538;6.728;2023-04-01T04:39:21;10.90;99.90
19085;DHT22;9675;51.538;6.728;2023-04-01T04:41:48;10.90;99.90
19085;DHT22;9675;51.538;6.728;2023-04-01T04:44:15;10.90;99.90
19085;DHT22;9675;51.538;6.728;2023-04-01T04:46:42;10.90;99.90
19085;DHT22;9675;51.538;6.728;2023-04-01T04:49:09;10.90;99.90
19085;DHT22;9675;51.538;6.728;2023-04-01T04:51:36;10.90;99.90
19085;DHT22;9675;51.538;6.728;2023-04-01T04:54:05;10.90;99.90
19085;DHT22;9675;51.538;6.728;2023-04-01T04:56:35;10.90;99.90
19085;DHT22;9675;51.538;6.728;2023-04-01T04:59:02;10.80;99.90
19085;DHT22;9675;51.538;6.728;2023-04-01T05:01:29;10.90;99.90
19085;DHT22;9675;51.538;6.728;2023-04-01T05:03:56;10.90;99.90
19085;DHT22;9675;51.538;6.728;2023-04-01T05:06:23;10.90;99.90
19085;DHT22;9675;51.538;6.728;2023-04-01T05:08:51;10.90;99.90
19085;DHT22;9675;51.538;6.728;2023-04-01T05:11:19;10.80;99.90
19085;DHT22;9675;51.538;6.728;2023-04-01T05:13:47;10.80;99.90
19085;DHT22;9675;51.538;6.728;2023-04-01T05:16:17;10.80;99.90
19085;DHT22;9675;51.538;6.728;2023-04-01T05:18:46;10.80;99.90
19085;DHT22;9675;51.538;6.728;2023-04-01T05:21:15;10.80;99.90
19085;DHT22;9675;51.538;6.728;2023-04-01T05:23:42;10.80;99.90
19085;DHT22;9675;51.538;6.728;2023-04-01T05:26:11;10.80;99.90
19085;DHT22;9675;51.538;6.728;2023-04-01T05:28:41;10.80;99.90
19085;DHT22;9675;51.538;6.728;2023-04-01T05:31:09;10.90;99.90
19085;DHT22;9675;51.538;6.728;2023-04-01T05:33:36;10.80;99.90
19085;DHT22;9675;51.538;6.728;2023-04-01T05:36:08;10.80;99.90
19085;DHT22;9675;51.538;6.728;2023-04-01T05:38:36;10.80;99.90
19085;DHT22;9675;51.538;6.728;2023-04-01T05:41:03;10.80;99.90
19085;DHT22;9675;51.538;6.728;2023-04-01T05:43:31;10.80;99.90
19085;DHT22;9675;51.538;6.728;2023-04-01T05:45:59;10.80;99.90
19085;DHT22;9675;51.538;6.728;2023-04-01T05:48:26;10.80;99.90
19085;DHT22;9675;51.538;6.728;2023-04-01T05:50:53;10.80;99.90
19085;DHT22;9675;51.538;6.728;2023-04-01T05:53:20;10.80;99.90
19085;DHT22;9675;51.538;6.728;2023-04-01T05:55:47;10.80;99.90
19085;DHT22;9675;51.538;6.728;2023-04-01T05:58:14;10.80;99.90
19085;DHT22;9675;51.538;6.728;2023-04-01T06:00:41;10.80;99.90
19085;DHT22;9675;51.538;6.728;2023-04-01T06:03:10;10.80;99.90
19085;DHT22;9675;51.538;6.728;2023-04-01T06:05:39;10.80;99.90
19085;DHT22;9675;51.538;6.728;2023-04-01T06:08:11;10.80;99.90
19085;DHT22;9675;51.538;6.728;2023-04-01T06:10:53;10.80;99.90
19085;DHT22;9675;51.538;6.728;2023-04-01T06:13:49;10.80;99.90
19085;DHT22;9675;51.538;6.728;2023-04-01T06:16:36;10.80;99.90
19085;DHT22;9675;51.538;6.728;2023-04-01T06:19:24;10.80;99.90
19085;DHT22;9675;51.538;6.728;2023-04-01T06:22:28;10.80;99.90
19085;DHT22;9675;51.538;6.728;2023-04-01T06:25:31;10.70;99.90
19085;DHT22;9675;51.538;6.728;2023-04-01T06:28:40;10.70;99.90
19085;DHT22;9675;51.538;6.728;2023-04-01T06:31:44;10.80;99.90
19085;DHT22;9675;51.538;6.728;2023-04-01T06:34:42;10.80;99.90
19085;DHT22;9675;51.538;6.728;2023-04-01T06:40:54;10.80;99.90
19085;DHT22;9675;51.538;6.728;2023-04-01T06:43:44;10.80;99.90
19085;DHT22;9675;51.538;6.728;2023-04-01T06:46:25;10.80;99.90
19085;DHT22;9675;51.538;6.728;2023-04-01T06:49:11;10.80;99.90
19085;DHT22;9675;51.538;6.728;2023-04-01T06:51:57;10.70;99.90
19085;DHT22;9675;51.538;6.728;2023-04-01T06:54:31;10.80;99.90
19085;DHT22;9675;51.538;6.728;2023-04-01T06:57:05;10.70;99.90
19085;DHT22;9675;51.538;6.728;2023-04-01T06:59:45;10.80;99.90
19085;DHT22;9675;51.538;6.728;2023-04-01T07:02:22;10.80;99.90
19085;DHT22;9675;51.538;6.728;2023-04-01T07:04:56;10.80;99.90
19085;DHT22;9675;51.538;6.728;2023-04-01T07:07:33;10.80;99.90
19085;DHT22;9675;51.538;6.728;2023-04-01T07:10:10;10.80;99.90
19085;DHT22;9675;51.538;6.728;2023-04-01T07:12:45;10.80;99.90
19085;DHT22;9675;51.538;6.728;2023-04-01T07:15:19;10.80;99.90
19085;DHT22;9675;51.538;6.728;2023-04-01T07:17:54;10.80;99.90
19085;DHT22;9675;51.538;6.728;2023-04-01T07:20:27;10.80;99.90
19085;DHT22;9675;51.538;6.728;2023-04-01T07:23:00;10.80;99.90
19085;DHT22;9675;51.538;6.728;2023-04-01T07:25:31;10.80;99.90
19085;DHT22;9675;51.538;6.728;2023-04-01T07:28:04;10.80;99.90
19085;DHT22;9675;51.538;6.728;2023-04-01T07:30:42;10.80;99.90
19085;DHT22;9675;51.538;6.728;2023-04-01T07:33:22;10.80;99.90
19085;DHT22;9675;51.538;6.728;2023-04-01T07:35:58;10.80;99.90
19085;DHT22;9675;51.538;6.728;2023-04-01T07:38:41;10.80;99.90
19085;DHT22;9675;51.538;6.728;2023-04-01T07:41:23;10.80;99.90
19085;DHT22;9675;51.538;6.728;2023-04-01T07:44:07;10.80;99.90
19085;DHT22;9675;51.538;6.728;2023-04-01T07:47:03;10.80;99.90
19085;DHT22;9675;51.538;6.728;2023-04-01T07:49:49;10.80;99.90
19085;DHT22;9675;51.538;6.728;2023-04-01T07:52:31;10.80;99.90
19085;DHT22;9675;51.538;6.728;2023-04-01T07:55:11;10.80;99.90
19085;DHT22;9675;51.538;6.728;2023-04-01T07:57:47;10.80;99.90
19085;DHT22;9675;51.538;6.728;2023-04-01T08:00:22;10.80;99.90
19085;DHT22;9675;51.538;6.728;2023-04-01T08:03:08;10.80;99.90
19085;DHT22;9675;51.538;6.728;2023-04-01T08:05:55;10.80;99.90
19085;DHT22;9675;51.538;6.728;2023-04-01T08:08:36;10.80;99.90
19085;DHT22;9675;51.538;6.728;2023-04-01T08:11:24;10.80;99.90
19085;DHT22;9675;51.538;6.728;2023-04-01T08:14:05;10.80;99.90
19085;DHT22;9675;51.538;6.728;2023-04-01T08:16:45;10.80;99.90
19085;DHT22;9675;51.538;6.728;2023-04-01T08:19:29;10.80;99.90
19085;DHT22;9675;51.538;6.728;2023-04-01T08:22:09;10.90;99.90
19085;DHT22;9675;51.538;6.728;2023-04-01T08:24:42;10.90;99.90
19085;DHT22;9675;51.538;6.728;2023-04-01T08:27:20;10.80;99.90
19085;DHT22;9675;51.538;6.728;2023-04-01T08:29:55;10.90;99.90
19085;DHT22;9675;51.538;6.728;2023-04-01T08:32:30;10.90;99.90
19085;DHT22;9675;51.538;6.728;2023-04-01T08:35:09;10.90;99.90
19085;DHT22;9675;51.538;6.728;2023-04-01T08:37:45;10.90;99.90
19085;DHT22;9675;51.538;6.728;2023-04-01T08:40:32;10.90;99.90
19085;DHT22;9675;51.538;6.728;2023-04-01T08:43:12;10.90;99.90
19085;DHT22;9675;51.538;6.728;2023-04-01T08:46:07;10.90;99.90
19085;DHT22;9675;51.538;6.728;2023-04-01T08:49:06;10.90;99.90
19085;DHT22;9675;51.538;6.728;2023-04-01T08:52:18;10.90;99.90
19085;DHT22;9675;51.538;6.728;2023-04-01T08:55:22;10.90;99.90
19085;DHT22;9675;51.538;6.728;2023-04-01T08:58:21;10.90;99.90
19085;DHT22;9675;51.538;6.728;2023-04-01T09:01:11;11.00;99.90
19085;DHT22;9675;51.538;6.728;2023-04-01T09:03:58;10.90;99.90
19085;DHT22;9675;51.538;6.728;2023-04-01T09:06:47;11.00;99.90
19085;DHT22;9675;51.538;6.728;2023-04-01T09:09:53;11.00;99.90
19085;DHT22;9675;51.538;6.728;2023-04-01T09:12:48;11.00;99.90
19085;DHT22;9675;51.538;6.728;2023-04-01T09:15:42;11.00;99.90
19085;DHT22;9675;51.538;6.728;2023-04-01T09:18:59;11.00;99.90
19085;DHT22;9675;51.538;6.728;2023-04-01T09:25:23;11.10;99.90
19085;DHT22;9675;51.538;6.728;2023-04-01T09:28:08;11.10;99.90
19085;DHT22;9675;51.538;6.728;2023-04-01T09:34:19;11.10;99.90
19085;DHT22;9675;51.538;6.728;2023-04-01T09:37:17;11.10;99.90
19085;DHT22;9675;51.538;6.728;2023-04-01T09:40:02;11.10;99.90
19085;DHT22;9675;51.538;6.728;2023-04-01T09:42:45;11.10;99.90
19085;DHT22;9675;51.538;6.728;2023-04-01T09:45:44;11.10;99.90
19085;DHT22;9675;51.538;6.728;2023-04-01T09:48:34;11.10;99.90
19085;DHT22;9675;51.538;6.728;2023-04-01T09:51:26;11.10;99.90
19085;DHT22;9675;51.538;6.728;2023-04-01T09:54:23;11.20;99.90
19085;DHT22;9675;51.538;6.728;2023-04-01T10:04:25;11.20;99.90
19085;DHT22;9675;51.538;6.728;2023-04-01T10:07:40;11.20;99.90
19085;DHT22;9675;51.538;6.728;2023-04-01T10:11:09;11.20;99.90
19085;DHT22;9675;51.538;6.728;2023-04-01T10:14:31;11.20;99.90
19085;DHT22;9675;51.538;6.728;2023-04-01T10:17:43;11.20;99.90
19085;DHT22;9675;51.538;6.728;2023-04-01T10:20:59;11.20;99.90
19085;DHT22;9675;51.538;6.728;2023-04-01T10:24:05;11.20;99.90
19085;DHT22;9675;51.538;6.728;2023-04-01T10:27:03;11.30;99.90
19085;DHT22;9675;51.538;6.728;2023-04-01T10:30:17;11.30;99.90
19085;DHT22;9675;51.538;6.728;2023-04-01T10:36:44;11.30;99.90
19085;DHT22;9675;51.538;6.728;2023-04-01T10:39:44;11.30;99.90
19085;DHT22;9675;51.538;6.728;2023-04-01T10:43:03;11.30;99.90
19085;DHT22;9675;51.538;6.728;2023-04-01T10:46:08;11.40;99.90
19085;DHT22;9675;51.538;6.728;2023-04-01T10:49:16;11.40;99.90
19085;DHT22;9675;51.538;6.728;2023-04-01T10:55:50;11.40;99.90
19085;DHT22;9675;51.538;6.728;2023-04-01T10:59:01;11.40;99.90
19085;DHT22;9675;51.538;6.728;2023-04-01T11:02:05;11.40;99.90
19085;DHT22;9675;51.538;6.728;2023-04-01T11:09:06;11.40;99.90
19085;DHT22;9675;51.538;6.728;2023-04-01T11:22:40;11.50;99.90
19085;DHT22;9675;51.538;6.728;2023-04-01T11:28:55;11.50;99.90
19085;DHT22;9675;51.538;6.728;2023-04-01T11:31:58;11.50;99.90
19085;DHT22;9675;51.538;6.728;2023-04-01T11:34:47;11.50;99.90
19085;DHT22;9675;51.538;6.728;2023-04-01T11:37:34;11.50;99.90
19085;DHT22;9675;51.538;6.728;2023-04-01T11:40:18;11.50;99.90
19085;DHT22;9675;51.538;6.728;2023-04-01T11:43:00;11.50;99.90
19085;DHT22;9675;51.538;6.728;2023-04-01T11:45:36;11.50;99.90
19085;DHT22;9675;51.538;6.728;2023-04-01T11:48:36;11.50;99.90
19085;DHT22;9675;51.538;6.728;2023-04-01T11:57:47;11.70;99.90
19085;DHT22;9675;51.538;6.728;2023-04-01T12:00:49;11.90;99.90
19085;DHT22;9675;51.538;6.728;2023-04-01T12:06:54;12.10;99.90
19085;DHT22;9675;51.538;6.728;2023-04-01T12:09:37;12.30;99.90
19085;DHT22;9675;51.538;6.728;2023-04-01T12:12:18;12.30;99.90
19085;DHT22;9675;51.538;6.728;2023-04-01T12:15:00;12.40;99.90
19085;DHT22;9675;51.538;6.728;2023-04-01T12:17:45;12.50;99.90
19085;DHT22;9675;51.538;6.728;2023-04-01T12:20:44;12.50;99.90
19085;DHT22;9675;51.538;6.728;2023-04-01T12:23:35;12.60;99.90
19085;DHT22;9675;51.538;6.728;2023-04-01T12:26:42;12.60;99.90
19085;DHT22;9675;51.538;6.728;2023-04-01T12:29:42;12.60;99.90
19085;DHT22;9675;51.538;6.728;2023-04-01T12:32:31;12.70;99.90
19085;DHT22;9675;51.538;6.728;2023-04-01T12:35:22;12.70;99.90
19085;DHT22;9675;51.538;6.728;2023-04-01T12:38:16;12.80;99.90
19085;DHT22;9675;51.538;6.728;2023-04-01T12:41:09;12.80;99.90
19085;DHT22;9675;51.538;6.728;2023-04-01T12:44:04;12.80;99.90
19085;DHT22;9675;51.538;6.728;2023-04-01T12:46:56;12.90;99.90
19085;DHT22;9675;51.538;6.728;2023-04-01T12:53:05;12.90;99.90
19085;DHT22;9675;51.538;6.728;2023-04-01T12:55:43;12.90;99.90
19085;DHT22;9675;51.538;6.728;2023-04-01T12:58:47;13.00;99.90
19085;DHT22;9675;51.538;6.728;2023-04-01T13:01:42;12.90;99.90
19085;DHT22;9675;51.538;6.728;2023-04-01T13:08:08;13.00;99.90
19085;DHT22;9675;51.538;6.728;2023-04-01T13:11:00;13.00;99.90
19085;DHT22;9675;51.538;6.728;2023-04-01T13:17:11;13.00;99.90
19085;DHT22;9675;51.538;6.728;2023-04-01T13:19:48;13.00;99.90
19085;DHT22;9675;51.538;6.728;2023-04-01T13:22:29;13.00;99.90
19085;DHT22;9675;51.538;6.728;2023-04-01T13:25:16;13.00;99.90
19085;DHT22;9675;51.538;6.728;2023-04-01T13:27:58;13.10;99.90
19085;DHT22;9675;51.538;6.728;2023-04-01T13:30:38;13.00;99.90
19085;DHT22;9675;51.538;6.728;2023-04-01T13:33:19;13.00;99.90
19085;DHT22;9675;51.538;6.728;2023-04-01T13:36:10;13.00;99.90
19085;DHT22;9675;51.538;6.728;2023-04-01T13:39:14;13.00;99.90
19085;DHT22;9675;51.538;6.728;2023-04-01T13:42:14;13.00;99.90
19085;DHT22;9675;51.538;6.728;2023-04-01T13:44:54;13.00;99.90
19085;DHT22;9675;51.538;6.728;2023-04-01T13:48:03;13.00;99.90
19085;DHT22;9675;51.538;6.728;2023-04-01T13:51:22;13.00;99.90
19085;DHT22;9675;51.538;6.728;2023-04-01T13:54:38;12.90;99.90
19085;DHT22;9675;51.538;6.728;2023-04-01T13:57:45;13.00;99.90
19085;DHT22;9675;51.538;6.728;2023-04-01T14:00:35;13.00;99.90
19085;DHT22;9675;51.538;6.728;2023-04-01T14:03:26;13.00;99.90
19085;DHT22;9675;51.538;6.728;2023-04-01T14:06:16;12.90;99.90
19085;DHT22;9675;51.538;6.728;2023-04-01T14:12:06;12.90;99.90
19085;DHT22;9675;51.538;6.728;2023-04-01T14:14:53;12.90;99.90
19085;DHT22;9675;51.538;6.728;2023-04-01T14:17:45;12.90;99.90
19085;DHT22;9675;51.538;6.728;2023-04-01T14:20:32;12.90;99.90
19085;DHT22;9675;51.538;6.728;2023-04-01T14:23:20;12.90;99.90
19085;DHT22;9675;51.538;6.728;2023-04-01T14:29:07;13.00;99.90
19085;DHT22;9675;51.538;6.728;2023-04-01T14:31:59;13.00;99.90
19085;DHT22;9675;51.538;6.728;2023-04-01T14:34:48;13.00;99.90
19085;DHT22;9675;51.538;6.728;2023-04-01T14:40:56;12.90;99.90
19085;DHT22;9675;51.538;6.728;2023-04-01T14:47:06;13.00;99.90
19085;DHT22;9675;51.538;6.728;2023-04-01T14:49:46;13.00;99.90
19085;DHT22;9675;51.538;6.728;2023-04-01T14:52:23;13.00;99.90
19085;DHT22;9675;51.538;6.728;2023-04-01T14:54:56;13.00;99.90
19085;DHT22;9675;51.538;6.728;2023-04-01T14:57:27;13.00;99.90
19085;DHT22;9675;51.538;6.728;2023-04-01T15:00:09;13.00;99.90
19085;DHT22;9675;51.538;6.728;2023-04-01T15:02:50;12.90;99.90
19085;DHT22;9675;51.538;6.728;2023-04-01T15:05:32;12.90;99.90
19085;DHT22;9675;51.538;6.728;2023-04-01T15:08:17;13.00;99.90
19085;DHT22;9675;51.538;6.728;2023-04-01T15:17:18;13.00;99.90
19085;DHT22;9675;51.538;6.728;2023-04-01T15:20:19;13.00;99.90
19085;DHT22;9675;51.538;6.728;2023-04-01T15:23:14;12.90;99.90
19085;DHT22;9675;51.538;6.728;2023-04-01T15:26:22;12.90;99.90
19085;DHT22;9675;51.538;6.728;2023-04-01T15:29:21;12.90;99.90
19085;DHT22;9675;51.538;6.728;2023-04-01T15:32:08;12.90;99.90
19085;DHT22;9675;51.538;6.728;2023-04-01T15:34:49;12.90;99.90
19085;DHT22;9675;51.538;6.728;2023-04-01T15:37:34;12.90;99.90
19085;DHT22;9675;51.538;6.728;2023-04-01T15:40:20;12.90;99.90
19085;DHT22;9675;51.538;6.728;2023-04-01T15:43:06;12.90;99.90
19085;DHT22;9675;51.538;6.728;2023-04-01T15:49:02;12.80;99.90
19085;DHT22;9675;51.538;6.728;2023-04-01T15:51:58;12.90;99.90
19085;DHT22;9675;51.538;6.728;2023-04-01T15:55:15;12.90;99.90
19085;DHT22;9675;51.538;6.728;2023-04-01T15:58:01;12.90;99.90
19085;DHT22;9675;51.538;6.728;2023-04-01T16:00:47;12.90;99.90
19085;DHT22;9675;51.538;6.728;2023-04-01T16:03:34;12.90;99.90
19085;DHT22;9675;51.538;6.728;2023-04-01T16:06:18;12.90;99.90
19085;DHT22;9675;51.538;6.728;2023-04-01T16:09:19;12.80;99.90
19085;DHT22;9675;51.538;6.728;2023-04-01T16:12:15;12.80;99.90
19085;DHT22;9675;51.538;6.728;2023-04-01T16:14:58;12.90;99.90
19085;DHT22;9675;51.538;6.728;2023-04-01T16:17:52;12.90;99.90
19085;DHT22;9675;51.538;6.728;2023-04-01T16:20:49;12.80;99.90
19085;DHT22;9675;51.538;6.728;2023-04-01T16:23:26;12.90;99.90
19085;DHT22;9675;51.538;6.728;2023-04-01T16:26:07;12.90;99.90
19085;DHT22;9675;51.538;6.728;2023-04-01T16:28:42;12.80;99.90
19085;DHT22;9675;51.538;6.728;2023-04-01T16:31:32;12.80;99.90
19085;DHT22;9675;51.538;6.728;2023-04-01T16:34:08;12.80;99.90
19085;DHT22;9675;51.538;6.728;2023-04-01T16:36:44;12.80;99.90
19085;DHT22;9675;51.538;6.728;2023-04-01T16:39:26;12.80;99.90
19085;DHT22;9675;51.538;6.728;2023-04-01T16:42:13;12.80;99.90
19085;DHT22;9675;51.538;6.728;2023-04-01T16:44:54;12.80;99.90
19085;DHT22;9675;51.538;6.728;2023-04-01T16:47:30;12.80;99.90
19085;DHT22;9675;51.538;6.728;2023-04-01T16:50:00;12.80;99.90
19085;DHT22;9675;51.538;6.728;2023-04-01T16:52:57;12.80;99.90
19085;DHT22;9675;51.538;6.728;2023-04-01T16:55:53;12.80;99.90
19085;DHT22;9675;51.538;6.728;2023-04-01T16:58:35;12.80;99.90
19085;DHT22;9675;51.538;6.728;2023-04-01T17:01:11;12.70;99.90
19085;DHT22;9675;51.538;6.728;2023-04-01T17:03:44;12.70;99.90
19085;DHT22;9675;51.538;6.728;2023-04-01T17:06:23;12.70;99.90
19085;DHT22;9675;51.538;6.728;2023-04-01T17:09:29;12.70;99.90
19085;DHT22;9675;51.538;6.728;2023-04-01T17:12:15;12.70;99.90
19085;DHT22;9675;51.538;6.728;2023-04-01T17:14:54;12.70;99.90
19085;DHT22;9675;51.538;6.728;2023-04-01T17:17:37;12.70;99.90
19085;DHT22;9675;51.538;6.728;2023-04-01T17:20:26;12.70;99.90
19085;DHT22;9675;51.538;6.728;2023-04-01T17:23:14;12.70;99.90
19085;DHT22;9675;51.538;6.728;2023-04-01T17:26:00;12.70;99.90
19085;DHT22;9675;51.538;6.728;2023-04-01T17:28:52;12.70;99.90
19085;DHT22;9675;51.538;6.728;2023-04-01T17:31:42;12.70;99.90
19085;DHT22;9675;51.538;6.728;2023-04-01T17:34:31;12.60;99.90
19085;DHT22;9675;51.538;6.728;2023-04-01T17:37:38;12.70;99.90
19085;DHT22;9675;51.538;6.728;2023-04-01T17:40:31;12.70;99.90
19085;DHT22;9675;51.538;6.728;2023-04-01T17:43:15;12.70;99.90
19085;DHT22;9675;51.538;6.728;2023-04-01T17:45:52;12.70;99.90
19085;DHT22;9675;51.538;6.728;2023-04-01T17:48:29;12.60;99.90
19085;DHT22;9675;51.538;6.728;2023-04-01T17:51:24;12.60;99.90
19085;DHT22;9675;51.538;6.728;2023-04-01T17:54:10;12.60;99.90
19085;DHT22;9675;51.538;6.728;2023-04-01T17:56:52;12.60;99.90
19085;DHT22;9675;51.538;6.728;2023-04-01T17:59:37;12.60;99.90
19085;DHT22;9675;51.538;6.728;2023-04-01T18:02:20;12.60;99.90
19085;DHT22;9675;51.538;6.728;2023-04-01T18:08:12;12.50;99.90
19085;DHT22;9675;51.538;6.728;2023-04-01T18:10:55;12.50;99.90
19085;DHT22;9675;51.538;6.728;2023-04-01T18:13:59;12.50;99.90
19085;DHT22;9675;51.538;6.728;2023-04-01T18:17:00;12.50;99.90
19085;DHT22;9675;51.538;6.728;2023-04-01T18:19:45;12.50;99.90
19085;DHT22;9675;51.538;6.728;2023-04-01T18:22:40;12.50;99.90
19085;DHT22;9675;51.538;6.728;2023-04-01T18:25:19;12.50;99.90
19085;DHT22;9675;51.538;6.728;2023-04-01T18:28:11;12.40;99.90
19085;DHT22;9675;51.538;6.728;2023-04-01T18:30:51;12.40;99.90
19085;DHT22;9675;51.538;6.728;2023-04-01T18:33:29;12.40;99.90
19085;DHT22;9675;51.538;6.728;2023-04-01T18:36:09;12.50;99.90
19085;DHT22;9675;51.538;6.728;2023-04-01T18:38:48;12.40;99.90
19085;DHT22;9675;51.538;6.728;2023-04-01T18:41:25;12.40;99.90
19085;DHT22;9675;51.538;6.728;2023-04-01T18:44:11;12.40;99.90
19085;DHT22;9675;51.538;6.728;2023-04-01T18:46:59;12.40;99.90
19085;DHT22;9675;51.538;6.728;2023-04-01T18:49:41;12.40;99.90
19085;DHT22;9675;51.538;6.728;2023-04-01T18:52:17;12.40;99.90
19085;DHT22;9675;51.538;6.728;2023-04-01T18:55:17;12.40;99.90